createdAt,value
2023-02-04T00:00:23.279Z,1.53
2023-02-04T00:02:51.080Z,0.93
2023-02-04T00:05:18.877Z,1.20
2023-02-04T00:07:46.701Z,1.60
2023-02-04T00:10:13.511Z,1.20
2023-02-04T00:12:40.040Z,1.30
2023-02-04T00:15:15.287Z,1.40
2023-02-04T00:17:43.007Z,1.33
2023-02-04T00:20:13.821Z,1.67
2023-02-04T00:22:40.834Z,1.43
2023-02-04T00:25:07.842Z,1.20
2023-02-04T00:27:34.474Z,1.10
2023-02-04T00:30:02.418Z,1.57
2023-02-04T00:32:30.119Z,1.30
2023-02-04T00:34:58.194Z,1.10
2023-02-04T00:37:25.126Z,1.37
2023-02-04T00:39:51.733Z,1.53
2023-02-04T00:42:20.398Z,1.40
2023-02-04T00:44:47.071Z,1.40
2023-02-04T00:47:13.648Z,1.43
2023-02-04T00:49:42.703Z,1.47
2023-02-04T00:52:09.633Z,1.60
2023-02-04T00:54:36.242Z,1.20
2023-02-04T00:57:02.789Z,1.33
2023-02-04T00:59:29.362Z,1.40
2023-02-04T01:01:55.902Z,2.50
2023-02-04T01:04:23.565Z,1.70
2023-02-04T01:06:50.180Z,1.80
2023-02-04T01:09:16.898Z,1.80
2023-02-04T01:11:43.381Z,2.13
2023-02-04T01:14:10.451Z,1.60
2023-02-04T01:16:37.210Z,1.60
2023-02-04T01:19:04.240Z,2.23
2023-02-04T01:21:30.864Z,1.95
2023-02-04T01:23:59.780Z,2.93
2023-02-04T01:26:26.537Z,3.47
2023-02-04T01:28:53.046Z,2.80
2023-02-04T01:31:19.816Z,3.23
2023-02-04T01:33:46.446Z,2.80
2023-02-04T01:36:13.864Z,2.77
2023-02-04T01:38:40.383Z,2.47
2023-02-04T01:41:07.533Z,3.40
2023-02-04T01:43:34.180Z,3.20
2023-02-04T01:46:03.174Z,3.27
2023-02-04T01:48:30.048Z,1.90
2023-02-04T01:51:06.338Z,2.07
2023-02-04T01:53:34.173Z,2.10
2023-02-04T01:56:01.242Z,2.00
2023-02-04T01:58:33.052Z,2.00
2023-02-04T02:01:01.754Z,1.80
2023-02-04T02:03:28.619Z,1.80
2023-02-04T02:05:56.610Z,1.50
2023-02-04T02:08:24.597Z,1.80
2023-02-04T02:10:51.231Z,2.03
2023-02-04T02:13:19.218Z,1.67
2023-02-04T02:15:46.824Z,1.93
2023-02-04T02:18:14.089Z,2.20
2023-02-04T02:20:43.669Z,2.30
2023-02-04T02:23:40.579Z,2.63
2023-02-04T02:26:07.053Z,2.77
2023-02-04T02:28:33.768Z,2.80
2023-02-04T02:31:00.835Z,2.70
2023-02-04T02:33:27.609Z,2.90
2023-02-04T02:35:57.026Z,2.93
2023-02-04T02:38:23.861Z,3.10
2023-02-04T02:40:52.314Z,3.13
2023-02-04T02:43:25.980Z,2.40
2023-02-04T02:45:55.874Z,2.67
2023-02-04T02:48:22.702Z,1.83
2023-02-04T02:50:49.449Z,2.30
2023-02-04T02:53:19.190Z,2.10
2023-02-04T02:55:46.504Z,2.60
2023-02-04T02:58:25.439Z,2.20
2023-02-04T03:00:53.105Z,2.10
2023-02-04T03:03:27.444Z,2.87
2023-02-04T03:06:00.096Z,2.13
2023-02-04T03:08:26.970Z,1.73
2023-02-04T03:10:53.593Z,2.03
2023-02-04T03:13:20.980Z,2.83
2023-02-04T03:15:48.723Z,2.13
2023-02-04T03:18:17.679Z,2.70
2023-02-04T03:20:44.453Z,2.40
2023-02-04T03:23:12.023Z,2.70
2023-02-04T03:25:41.515Z,2.00
2023-02-04T03:28:08.079Z,2.70
2023-02-04T03:30:35.768Z,2.40
2023-02-04T03:33:02.765Z,2.77
2023-02-04T03:35:29.941Z,2.10
2023-02-04T03:37:58.326Z,2.33
2023-02-04T03:40:25.277Z,3.13
2023-02-04T03:42:52.110Z,3.00
2023-02-04T03:45:18.814Z,2.03
2023-02-04T03:47:45.406Z,2.70
2023-02-04T03:50:14.482Z,3.63
2023-02-04T03:52:41.338Z,2.97
2023-02-04T03:55:08.135Z,2.73
2023-02-04T03:57:34.738Z,2.50
2023-02-04T04:00:04.847Z,2.57
2023-02-04T04:02:31.566Z,2.83
2023-02-04T04:04:58.586Z,2.73
2023-02-04T04:07:25.768Z,2.50
2023-02-04T04:09:52.287Z,2.53
2023-02-04T04:12:18.914Z,3.20
2023-02-04T04:14:46.269Z,2.57
2023-02-04T04:17:13.784Z,2.97
2023-02-04T04:19:40.429Z,2.43
2023-02-04T04:22:07.584Z,2.70
2023-02-04T04:24:34.205Z,2.20
2023-02-04T04:27:01.097Z,2.57
2023-02-04T04:29:27.727Z,2.60
2023-02-04T04:31:54.303Z,2.33
2023-02-04T04:34:21.093Z,3.07
2023-02-04T04:36:47.648Z,2.13
2023-02-04T04:39:14.227Z,2.53
2023-02-04T04:41:40.832Z,2.97
2023-02-04T04:44:07.515Z,2.30
2023-02-04T04:46:34.337Z,2.33
2023-02-04T04:49:01.269Z,3.50
2023-02-04T04:51:27.814Z,3.00
2023-02-04T04:53:54.880Z,2.60
2023-02-04T04:56:21.682Z,2.20
2023-02-04T04:58:51.635Z,2.67
2023-02-04T05:01:18.628Z,3.73
2023-02-04T05:03:45.136Z,3.20
2023-02-04T05:06:13.286Z,3.03
2023-02-04T05:08:39.869Z,3.03
2023-02-04T05:11:06.475Z,2.80
2023-02-04T05:13:33.440Z,3.10
2023-02-04T05:16:00.066Z,3.83
2023-02-04T05:18:26.829Z,2.60
2023-02-04T05:20:53.430Z,2.30
2023-02-04T05:23:19.979Z,2.40
2023-02-04T05:25:47.625Z,2.50
2023-02-04T05:28:14.533Z,2.13
2023-02-04T05:30:41.664Z,2.27
2023-02-04T05:33:08.631Z,2.07
2023-02-04T05:35:36.768Z,2.50
2023-02-04T05:38:03.428Z,1.97
2023-02-04T05:40:30.119Z,2.70
2023-02-04T05:42:56.745Z,2.50
2023-02-04T05:45:24.886Z,1.80
2023-02-04T05:47:52.740Z,1.80
2023-02-04T05:50:19.436Z,1.83
2023-02-04T05:52:46.274Z,2.03
2023-02-04T05:55:14.325Z,1.63
2023-02-04T05:57:41.113Z,2.17
2023-02-04T06:00:09.106Z,1.90
2023-02-04T06:02:35.848Z,1.53
2023-02-04T06:05:02.447Z,1.80
2023-02-04T06:07:28.893Z,1.63
2023-02-04T06:09:55.508Z,2.20
2023-02-04T06:12:21.998Z,2.37
2023-02-04T06:14:48.529Z,2.60
2023-02-04T06:17:15.022Z,1.50
2023-02-04T06:19:41.885Z,1.67
2023-02-04T06:22:08.611Z,2.20
2023-02-04T06:24:37.118Z,2.03
2023-02-04T06:27:03.828Z,1.60
2023-02-04T06:29:30.546Z,1.50
2023-02-04T06:31:57.367Z,1.53
2023-02-04T06:34:24.008Z,2.70
2023-02-04T06:36:50.668Z,1.47
2023-02-04T06:39:17.477Z,1.73
2023-02-04T06:41:44.029Z,1.70
2023-02-04T06:44:10.615Z,1.40
2023-02-04T06:46:37.409Z,1.67
2023-02-04T06:49:05.064Z,1.80
2023-02-04T06:51:33.662Z,1.50
2023-02-04T06:54:02.804Z,1.60
2023-02-04T06:56:29.965Z,1.80
2023-02-04T06:58:56.684Z,1.73
2023-02-04T07:01:23.803Z,1.90
2023-02-04T07:03:50.688Z,1.90
2023-02-04T07:06:17.314Z,2.17
2023-02-04T07:08:44.174Z,2.40
2023-02-04T07:11:10.756Z,1.67
2023-02-04T07:13:37.305Z,1.67
2023-02-04T07:16:06.705Z,1.50
2023-02-04T07:18:33.470Z,1.33
2023-02-04T07:21:01.099Z,1.97
2023-02-04T07:23:28.675Z,1.70
2023-02-04T07:25:59.894Z,2.17
2023-02-04T07:28:26.708Z,1.60
2023-02-04T07:30:55.794Z,2.17
2023-02-04T07:33:22.977Z,2.07
2023-02-04T07:35:51.146Z,1.63
2023-02-04T07:38:17.960Z,2.00
2023-02-04T07:40:46.455Z,11.07
2023-02-04T07:43:13.446Z,12.20
2023-02-04T07:45:41.513Z,19.97
2023-02-04T07:48:08.038Z,1.90
2023-02-04T07:50:35.122Z,7.73
2023-02-04T07:53:01.969Z,3.50
2023-02-04T07:55:31.131Z,3.00
2023-02-04T07:58:01.023Z,3.43
2023-02-04T08:00:31.498Z,5.23
2023-02-04T08:02:59.230Z,4.30
2023-02-04T08:05:26.186Z,2.90
2023-02-04T08:07:53.570Z,2.20
2023-02-04T08:10:21.542Z,2.77
2023-02-04T08:12:48.077Z,4.20
2023-02-04T08:15:14.629Z,3.17
2023-02-04T08:17:42.798Z,2.00
2023-02-04T08:20:10.350Z,3.43
2023-02-04T08:22:37.172Z,2.00
2023-02-04T08:25:05.678Z,1.40
2023-02-04T08:27:32.390Z,2.67
2023-02-04T08:29:59.302Z,3.40
2023-02-04T08:32:27.935Z,3.47
2023-02-04T08:34:54.894Z,3.37
2023-02-04T08:37:24.979Z,2.10
2023-02-04T08:39:53.537Z,2.43
2023-02-04T08:42:20.893Z,1.87
2023-02-04T08:44:49.451Z,2.23
2023-02-04T08:47:17.278Z,2.70
2023-02-04T08:49:45.127Z,2.40
2023-02-04T08:52:14.365Z,1.90
2023-02-04T08:54:42.746Z,1.60
2023-02-04T08:57:11.273Z,1.90
2023-02-04T08:59:37.960Z,3.30
2023-02-04T09:02:06.141Z,1.67
2023-02-04T09:04:33.417Z,2.20
2023-02-04T09:07:00.017Z,2.37
2023-02-04T09:09:27.853Z,2.53
2023-02-04T09:11:54.444Z,2.60
2023-02-04T09:14:28.178Z,2.40
2023-02-04T09:16:55.874Z,3.07
2023-02-04T09:19:28.374Z,1.83
2023-02-04T09:21:55.699Z,1.90
2023-02-04T09:24:23.810Z,4.93
2023-02-04T09:26:52.059Z,4.13
2023-02-04T09:29:18.945Z,3.00
2023-02-04T09:31:45.543Z,3.37
2023-02-04T09:34:13.731Z,1.87
2023-02-04T09:36:41.431Z,2.50
2023-02-04T09:39:10.215Z,3.77
2023-02-04T09:41:40.040Z,2.33
2023-02-04T09:44:13.573Z,1.80
2023-02-04T09:46:40.261Z,2.17
2023-02-04T09:49:09.720Z,2.53
2023-02-04T09:51:36.374Z,2.20
2023-02-04T09:54:13.048Z,5.47
2023-02-04T09:56:40.305Z,2.47
2023-02-04T09:59:13.300Z,2.30
2023-02-04T10:01:41.297Z,2.00
2023-02-04T10:04:14.130Z,2.70
2023-02-04T10:06:42.765Z,2.03
2023-02-04T10:09:11.782Z,2.43
2023-02-04T10:11:42.058Z,3.30
2023-02-04T10:14:19.333Z,3.17
2023-02-04T10:16:59.153Z,2.93
2023-02-04T10:19:27.911Z,2.70
2023-02-04T10:21:54.772Z,3.17
2023-02-04T10:24:26.467Z,2.90
2023-02-04T10:26:53.632Z,3.70
2023-02-04T10:29:26.228Z,4.13
2023-02-04T10:31:53.490Z,3.40
2023-02-04T10:34:25.554Z,3.10
2023-02-04T10:36:57.750Z,2.80
2023-02-04T10:39:29.284Z,2.93
2023-02-04T10:42:00.666Z,2.90
2023-02-04T10:44:36.743Z,3.67
2023-02-04T10:47:15.572Z,3.70
2023-02-04T10:49:55.474Z,3.63
2023-02-04T10:52:27.184Z,3.90
2023-02-04T10:54:53.740Z,3.33
2023-02-04T10:57:35.007Z,3.90
2023-02-04T11:00:04.853Z,3.80
2023-02-04T11:02:45.628Z,3.13
2023-02-04T11:05:19.669Z,3.13
2023-02-04T11:07:47.278Z,3.40
2023-02-04T11:10:23.678Z,3.30
2023-02-04T11:12:55.432Z,3.13
2023-02-04T11:15:37.312Z,2.47
2023-02-04T11:18:24.193Z,3.00
2023-02-04T11:20:53.377Z,3.50
2023-02-04T11:23:26.419Z,3.73
2023-02-04T11:26:23.124Z,3.73
2023-02-04T11:29:01.800Z,4.27
2023-02-04T11:31:40.596Z,3.07
2023-02-04T11:34:16.402Z,2.97
2023-02-04T11:37:02.818Z,4.70
2023-02-04T11:39:38.690Z,4.13
2023-02-04T11:42:06.648Z,3.40
2023-02-04T11:44:34.096Z,3.40
2023-02-04T11:47:02.999Z,3.93
2023-02-04T11:49:31.281Z,4.73
2023-02-04T11:52:13.071Z,4.33
2023-02-04T11:54:41.375Z,5.83
2023-02-04T11:57:11.435Z,4.20
2023-02-04T11:59:38.418Z,3.27
2023-02-04T12:02:28.107Z,3.10
2023-02-04T12:04:58.574Z,3.37
2023-02-04T12:07:31.297Z,3.00
2023-02-04T12:09:59.922Z,3.43
2023-02-04T12:12:29.558Z,4.23
2023-02-04T12:15:06.340Z,3.60
2023-02-04T12:17:33.263Z,2.80
2023-02-04T12:20:00.336Z,3.53
2023-02-04T12:22:27.899Z,2.80
2023-02-04T12:24:54.876Z,3.13
2023-02-04T12:27:22.485Z,3.47
2023-02-04T12:29:50.409Z,3.57
2023-02-04T12:32:19.477Z,3.40
2023-02-04T12:34:46.359Z,3.50
2023-02-04T12:37:13.656Z,2.53
2023-02-04T12:39:43.049Z,2.73
2023-02-04T12:42:12.232Z,3.20
2023-02-04T12:44:38.955Z,2.93
2023-02-04T12:47:06.580Z,2.30
2023-02-04T12:49:34.190Z,2.90
2023-02-04T12:52:02.712Z,3.40
2023-02-04T12:54:29.333Z,3.20
2023-02-04T12:56:59.008Z,2.80
2023-02-04T12:59:26.160Z,2.60
2023-02-04T13:01:54.905Z,2.73
2023-02-04T13:04:24.927Z,3.10
2023-02-04T13:06:51.959Z,2.97
2023-02-04T13:09:23.080Z,2.80
2023-02-04T13:11:49.886Z,2.90
2023-02-04T13:14:16.500Z,2.93
2023-02-04T13:16:48.728Z,2.60
2023-02-04T13:19:15.696Z,3.07
2023-02-04T13:21:42.344Z,3.20
2023-02-04T13:24:09.119Z,3.00
2023-02-04T13:26:36.355Z,3.10
2023-02-04T13:29:04.520Z,3.20
2023-02-04T13:31:31.585Z,2.73
2023-02-04T13:33:58.335Z,3.03
2023-02-04T13:36:28.403Z,3.30
2023-02-04T13:38:55.687Z,3.47
2023-02-04T13:41:22.987Z,3.83
2023-02-04T13:43:55.541Z,4.57
2023-02-04T13:46:22.712Z,2.43
2023-02-04T13:48:50.873Z,2.87
2023-02-04T13:51:18.065Z,3.10
2023-02-04T13:53:44.976Z,3.00
2023-02-04T13:56:14.391Z,2.80
2023-02-04T13:58:44.597Z,3.17
2023-02-04T14:01:13.751Z,2.77
2023-02-04T14:03:40.892Z,2.67
2023-02-04T14:06:08.893Z,4.13
2023-02-04T14:08:35.846Z,3.10
2023-02-04T14:11:02.623Z,3.57
2023-02-04T14:13:31.851Z,3.00
2023-02-04T14:15:58.895Z,3.40
2023-02-04T14:18:25.660Z,4.00
2023-02-04T14:20:53.014Z,3.13
2023-02-04T14:23:19.644Z,2.80
2023-02-04T14:25:46.737Z,3.47
2023-02-04T14:28:13.985Z,3.70
2023-02-04T14:30:40.733Z,2.90
2023-02-04T14:33:09.142Z,4.23
2023-02-04T14:35:38.727Z,9.30
2023-02-04T14:38:05.900Z,4.30
2023-02-04T14:40:40.478Z,4.83
2023-02-04T14:43:11.399Z,3.80
2023-02-04T14:45:43.630Z,4.80
2023-02-04T14:48:10.530Z,11.40
2023-02-04T14:50:37.165Z,13.10
2023-02-04T14:53:05.245Z,5.77
2023-02-04T14:55:35.342Z,10.90
2023-02-04T14:58:02.122Z,4.73
2023-02-04T15:00:30.585Z,3.77
2023-02-04T15:03:07.039Z,4.17
2023-02-04T15:05:34.304Z,5.00
2023-02-04T15:08:00.871Z,6.07
2023-02-04T15:10:27.954Z,6.30
2023-02-04T15:12:56.038Z,4.23
2023-02-04T15:15:24.478Z,4.17
2023-02-04T15:17:52.203Z,3.30
2023-02-04T15:20:19.250Z,4.07
2023-02-04T15:22:52.488Z,3.93
2023-02-04T15:25:19.501Z,3.97
2023-02-04T15:27:46.690Z,6.83
2023-02-04T15:30:14.326Z,4.43
2023-02-04T15:32:42.885Z,6.60
2023-02-04T15:35:10.214Z,7.57
2023-02-04T15:37:42.303Z,4.60
2023-02-04T15:40:11.342Z,4.80
2023-02-04T15:42:38.976Z,4.80
2023-02-04T15:45:07.394Z,5.20
2023-02-04T15:47:33.994Z,4.70
2023-02-04T15:50:03.985Z,4.47
2023-02-04T15:52:30.667Z,5.47
2023-02-04T15:54:58.998Z,6.47
2023-02-04T15:57:29.292Z,6.80
2023-02-04T15:59:58.583Z,6.00
2023-02-04T16:02:25.869Z,5.30
2023-02-04T16:04:53.190Z,6.53
2023-02-04T16:07:20.709Z,6.57
2023-02-04T16:09:48.398Z,5.97
2023-02-04T16:12:18.887Z,5.57
2023-02-04T16:14:45.345Z,6.10
2023-02-04T16:17:12.490Z,5.70
2023-02-04T16:19:39.123Z,5.60
2023-02-04T16:22:06.646Z,5.70
2023-02-04T16:24:37.363Z,5.53
2023-02-04T16:27:04.395Z,6.47
2023-02-04T16:29:31.126Z,6.70
2023-02-04T16:31:58.354Z,6.67
2023-02-04T16:34:27.749Z,8.23
2023-02-04T16:36:57.403Z,5.83
2023-02-04T16:39:27.280Z,7.27
2023-02-04T16:41:56.446Z,6.40
2023-02-04T16:44:23.326Z,7.33
2023-02-04T16:46:54.378Z,7.00
2023-02-04T16:49:23.679Z,5.80
2023-02-04T16:51:51.454Z,5.30
2023-02-04T16:54:18.520Z,5.77
2023-02-04T16:56:46.631Z,6.17
2023-02-04T16:59:13.872Z,4.47
2023-02-04T17:01:45.693Z,5.07
2023-02-04T17:04:12.305Z,5.20
2023-02-04T17:06:39.437Z,6.30
2023-02-04T17:09:06.199Z,6.33
2023-02-04T17:11:40.338Z,6.83
2023-02-04T17:14:16.988Z,5.30
2023-02-04T17:16:46.458Z,5.83
2023-02-04T17:19:14.983Z,6.07
2023-02-04T17:21:42.080Z,5.60
2023-02-04T17:24:09.637Z,5.47
2023-02-04T17:26:38.268Z,5.63
2023-02-04T17:29:10.942Z,7.87
2023-02-04T17:31:40.113Z,6.43
2023-02-04T17:34:06.898Z,5.83
2023-02-04T17:36:37.095Z,6.77
2023-02-04T17:39:03.785Z,7.60
2023-02-04T17:41:31.110Z,5.90
2023-02-04T17:43:59.377Z,8.07
2023-02-04T17:46:26.281Z,6.67
2023-02-04T17:48:58.204Z,5.97
2023-02-04T17:51:25.379Z,7.03
2023-02-04T17:53:54.403Z,6.23
2023-02-04T17:56:21.766Z,5.67
2023-02-04T17:58:48.450Z,6.00
2023-02-04T18:01:20.004Z,5.27
2023-02-04T18:03:47.058Z,5.77
2023-02-04T18:06:22.263Z,6.10
2023-02-04T18:08:50.691Z,6.17
2023-02-04T18:11:27.538Z,7.00
2023-02-04T18:13:56.983Z,4.90
2023-02-04T18:16:34.275Z,6.07
2023-02-04T18:19:31.409Z,5.93
2023-02-04T18:22:02.293Z,6.00
2023-02-04T18:24:43.731Z,6.27
2023-02-04T18:27:18.041Z,6.30
2023-02-04T18:29:47.384Z,6.03
2023-02-04T18:32:28.063Z,5.73
2023-02-04T18:34:58.933Z,6.73
2023-02-04T18:37:33.986Z,5.73
2023-02-04T18:40:46.262Z,6.00
2023-02-04T18:43:25.536Z,5.90
2023-02-04T18:45:52.412Z,5.20
2023-02-04T18:48:22.708Z,5.40
2023-02-04T18:50:55.048Z,5.90
2023-02-04T18:53:28.012Z,5.80
2023-02-04T18:55:59.257Z,6.80
2023-02-04T18:58:31.946Z,7.43
2023-02-04T19:01:02.966Z,7.07
2023-02-04T19:03:32.262Z,6.90
2023-02-04T19:06:02.261Z,6.77
2023-02-04T19:08:46.945Z,7.37
2023-02-04T19:11:36.994Z,6.13
2023-02-04T19:14:40.690Z,6.07
2023-02-04T19:17:28.816Z,6.60
2023-02-04T19:20:00.122Z,7.07
2023-02-04T19:22:34.232Z,7.93
2023-02-04T19:25:23.254Z,6.70
2023-02-04T19:27:54.163Z,7.13
2023-02-04T19:30:36.090Z,5.93
2023-02-04T19:33:16.912Z,7.27
2023-02-04T19:35:49.052Z,6.40
2023-02-04T19:38:37.821Z,6.20
2023-02-04T19:41:20.886Z,5.87
2023-02-04T19:43:50.310Z,5.73
2023-02-04T19:46:24.307Z,6.07
2023-02-04T19:48:53.192Z,6.97
2023-02-04T19:51:21.467Z,5.70
2023-02-04T19:53:54.212Z,6.00
2023-02-04T19:56:40.411Z,6.43
2023-02-04T19:59:29.366Z,6.93
2023-02-04T20:02:27.187Z,5.40
2023-02-04T20:04:55.121Z,6.20
2023-02-04T20:07:24.644Z,5.13
2023-02-04T20:10:35.665Z,5.87
2023-02-04T20:13:19.577Z,5.80
2023-02-04T20:15:46.579Z,6.63
2023-02-04T20:18:23.232Z,5.80
2023-02-04T20:20:51.297Z,5.60
2023-02-04T20:23:28.459Z,5.17
2023-02-04T20:25:56.494Z,5.63
2023-02-04T20:28:40.750Z,5.00
2023-02-04T20:31:27.424Z,5.43
2023-02-04T20:33:59.715Z,5.00
2023-02-04T20:36:38.318Z,3.97
2023-02-04T20:39:26.482Z,4.00
2023-02-04T20:41:54.732Z,4.60
2023-02-04T20:44:39.802Z,5.70
2023-02-04T20:47:22.106Z,4.40
2023-02-04T20:49:54.379Z,4.90
2023-02-04T20:52:49.430Z,4.20
2023-02-04T20:55:30.891Z,3.90
2023-02-04T20:58:18.581Z,3.80
2023-02-04T21:00:49.602Z,3.50
2023-02-04T21:03:21.069Z,4.20
2023-02-04T21:05:50.124Z,4.87
2023-02-04T21:08:18.520Z,4.70
2023-02-04T21:10:46.064Z,4.73
2023-02-04T21:13:14.168Z,4.60
2023-02-04T21:15:40.930Z,4.33
2023-02-04T21:18:07.550Z,4.50
2023-02-04T21:20:35.140Z,4.10
2023-02-04T21:23:06.381Z,5.00
2023-02-04T21:25:34.987Z,3.53
2023-02-04T21:28:04.429Z,3.40
2023-02-04T21:30:31.278Z,4.33
2023-02-04T21:32:59.781Z,3.70
2023-02-04T21:35:30.574Z,3.50
2023-02-04T21:38:03.488Z,4.57
2023-02-04T21:40:31.517Z,4.23
2023-02-04T21:42:59.118Z,4.00
2023-02-04T21:45:28.452Z,6.50
2023-02-04T21:47:55.254Z,3.30
2023-02-04T21:50:25.867Z,3.50
2023-02-04T21:52:52.507Z,2.70
2023-02-04T21:55:22.048Z,3.10
2023-02-04T21:57:55.013Z,2.90
2023-02-04T22:00:25.544Z,3.00
2023-02-04T22:02:53.179Z,2.47
2023-02-04T22:05:20.827Z,3.13
2023-02-04T22:07:49.391Z,2.67
2023-02-04T22:10:20.325Z,2.60
2023-02-04T22:12:50.044Z,2.93
2023-02-04T22:15:24.394Z,2.87
2023-02-04T22:17:53.541Z,3.00
2023-02-04T22:20:21.780Z,3.33
2023-02-04T22:22:51.988Z,2.63
2023-02-04T22:25:20.960Z,2.80
2023-02-04T22:27:55.339Z,3.23
2023-02-04T22:30:27.733Z,3.10
2023-02-04T22:32:56.549Z,3.47
2023-02-04T22:35:24.144Z,3.50
2023-02-04T22:37:53.120Z,3.00
2023-02-04T22:40:20.949Z,3.90
2023-02-04T22:42:49.211Z,3.30
2023-02-04T22:45:15.900Z,4.10
2023-02-04T22:47:42.941Z,4.20
2023-02-04T22:50:10.678Z,4.47
2023-02-04T22:52:37.472Z,5.00
2023-02-04T22:55:05.037Z,4.93
2023-02-04T22:57:34.641Z,4.63
2023-02-04T23:00:01.213Z,5.40
2023-02-04T23:02:28.977Z,5.00
2023-02-04T23:04:58.440Z,4.80
2023-02-04T23:07:27.765Z,5.00
2023-02-04T23:09:54.398Z,5.63
2023-02-04T23:12:23.194Z,4.60
2023-02-04T23:14:52.826Z,4.57
2023-02-04T23:17:19.413Z,5.73
2023-02-04T23:19:46.236Z,5.13
2023-02-04T23:22:13.719Z,5.23
2023-02-04T23:24:42.126Z,5.93
2023-02-04T23:27:11.608Z,5.00
2023-02-04T23:29:40.702Z,5.30
2023-02-04T23:32:07.606Z,5.07
2023-02-04T23:34:34.646Z,5.50
2023-02-04T23:37:03.982Z,6.00
2023-02-04T23:39:30.823Z,5.30
2023-02-04T23:41:59.607Z,5.23
2023-02-04T23:44:26.806Z,4.80
2023-02-04T23:46:53.522Z,5.40
2023-02-04T23:49:20.392Z,5.33
2023-02-04T23:51:47.420Z,5.77
2023-02-04T23:54:14.271Z,5.10
2023-02-04T23:56:43.503Z,5.30
2023-02-04T23:59:10.266Z,5.27
